Time;durP1;ratioP1;P1;durP2;ratioP2;P2;SDS_P1;SDS_P2;PMS_P1;PMS_P2;Temp;Humidity;BMP_temperature;BMP_pressure;BME280_temperature;BME280_humidity;BME280_pressure;Samples;Min_cycle;Max_cycle;Signal;HPM_P1;HPM_P2
2023/09/25 00:00:36;;;;;;;3.30;3.00;;;;;;;;;;5031089;28;20119;-61
2023/09/25 00:03:03;;;;;;;4.50;2.60;;;;;;;;;;5015756;28;20026;-61
2023/09/25 00:05:30;;;;;;;4.88;2.75;;;;;;;;;;5028236;28;20388;-61
2023/09/25 00:07:57;;;;;;;5.55;2.78;;;;;;;;;;5033329;28;20075;-62
2023/09/25 00:10:23;;;;;;;4.10;3.00;;;;;;;;;;5030966;28;20033;-61
2023/09/25 00:12:49;;;;;;;6.65;2.63;;;;;;;;;;5042415;28;20443;-61
2023/09/25 00:15:16;;;;;;;3.78;2.67;;;;;;;;;;5032331;28;20328;-61
2023/09/25 00:17:44;;;;;;;3.65;3.08;;;;;;;;;;5033126;28;20162;-61
2023/09/25 00:20:11;;;;;;;4.72;3.08;;;;;;;;;;5039727;28;20100;-61
2023/09/25 00:22:38;;;;;;;3.78;3.13;;;;;;;;;;5030746;28;20041;-61
2023/09/25 00:25:04;;;;;;;3.75;3.00;;;;;;;;;;5037196;28;20040;-61
2023/09/25 00:27:33;;;;;;;3.60;3.30;;;;;;;;;;5040093;28;20032;-61
2023/09/25 00:30:00;;;;;;;4.15;3.08;;;;;;;;;;5030411;28;20546;-62
2023/09/25 00:32:26;;;;;;;4.63;3.05;;;;;;;;;;5031841;28;20080;-62
2023/09/25 00:34:52;;;;;;;4.10;3.13;;;;;;;;;;5031213;28;20503;-62
2023/09/25 00:37:19;;;;;;;6.25;3.15;;;;;;;;;;5031248;28;20029;-62
2023/09/25 00:39:46;;;;;;;4.63;3.15;;;;;;;;;;5032749;28;20083;-62
2023/09/25 00:42:12;;;;;;;3.65;2.83;;;;;;;;;;5029959;28;20060;-62
2023/09/25 00:44:38;;;;;;;3.90;3.30;;;;;;;;;;5032465;28;20038;-62
2023/09/25 00:47:08;;;;;;;5.35;3.80;;;;;;;;;;5032581;28;20028;-62
2023/09/25 00:49:35;;;;;;;3.33;2.97;;;;;;;;;;5028534;28;20383;-62
2023/09/25 00:55:27;;;;;;;4.85;3.42;;;;;;;;;;5019513;28;20036;-62
2023/09/25 00:57:53;;;;;;;3.25;2.95;;;;;;;;;;5029278;28;20026;-62
2023/09/25 01:00:19;;;;;;;4.65;3.00;;;;;;;;;;5031137;28;20421;-62
2023/09/25 01:02:46;;;;;;;4.03;3.60;;;;;;;;;;5036573;28;20017;-62
2023/09/25 01:05:12;;;;;;;6.07;3.60;;;;;;;;;;5040780;28;20037;-62
2023/09/25 01:07:39;;;;;;;5.47;3.80;;;;;;;;;;5003246;28;20040;-62
2023/09/25 01:10:08;;;;;;;4.20;3.47;;;;;;;;;;5032297;28;20030;-63
2023/09/25 01:12:37;;;;;;;3.78;3.15;;;;;;;;;;5030094;28;20021;-62
2023/09/25 01:15:03;;;;;;;5.18;3.10;;;;;;;;;;5029488;28;20025;-62
2023/09/25 01:17:29;;;;;;;4.82;3.80;;;;;;;;;;5030742;28;20426;-62
2023/09/25 01:19:55;;;;;;;5.55;3.35;;;;;;;;;;5015117;28;20112;-62
2023/09/25 01:22:21;;;;;;;3.72;3.38;;;;;;;;;;5030569;28;20140;-62
2023/09/25 01:24:49;;;;;;;6.13;3.35;;;;;;;;;;5028612;28;20053;-62
2023/09/25 01:27:16;;;;;;;5.07;3.45;;;;;;;;;;5027001;28;20441;-62
2023/09/25 01:29:42;;;;;;;5.38;3.03;;;;;;;;;;5029079;28;20088;-62
2023/09/25 01:32:08;;;;;;;3.13;2.80;;;;;;;;;;5026257;28;20700;-62
2023/09/25 01:34:37;;;;;;;3.95;3.10;;;;;;;;;;5027969;28;20395;-62
2023/09/25 01:37:05;;;;;;;3.92;3.55;;;;;;;;;;5024409;28;20140;-62
2023/09/25 01:39:32;;;;;;;4.80;2.63;;;;;;;;;;5028508;28;20461;-62
2023/09/25 01:41:58;;;;;;;4.28;3.15;;;;;;;;;;5030026;28;20108;-62
2023/09/25 01:44:26;;;;;;;3.17;2.67;;;;;;;;;;5010339;28;20026;-62
2023/09/25 01:46:52;;;;;;;4.10;2.95;;;;;;;;;;5030871;28;20502;-62
2023/09/25 01:49:18;;;;;;;5.28;3.00;;;;;;;;;;5030779;28;20033;-62
2023/09/25 01:51:44;;;;;;;4.50;2.72;;;;;;;;;;5027413;28;20017;-63
2023/09/25 01:54:10;;;;;;;4.10;3.03;;;;;;;;;;5030975;28;20049;-62
2023/09/25 01:56:36;;;;;;;3.60;3.10;;;;;;;;;;5030523;28;20061;-62
2023/09/25 01:59:02;;;;;;;3.88;3.42;;;;;;;;;;5030327;28;20457;-62
2023/09/25 02:01:28;;;;;;;3.72;3.08;;;;;;;;;;5028932;28;20032;-62
2023/09/25 02:03:54;;;;;;;5.30;3.40;;;;;;;;;;5012961;28;20102;-62
2023/09/25 02:06:21;;;;;;;4.30;2.63;;;;;;;;;;5029017;28;20105;-62
2023/09/25 02:08:47;;;;;;;5.15;3.00;;;;;;;;;;5044777;28;20029;-62
2023/09/25 02:11:14;;;;;;;4.15;3.20;;;;;;;;;;5030894;28;20479;-62
2023/09/25 02:13:40;;;;;;;4.90;2.85;;;;;;;;;;5025234;28;20108;-62
2023/09/25 02:16:06;;;;;;;4.07;3.08;;;;;;;;;;5031147;28;20459;-62
2023/09/25 02:18:32;;;;;;;6.85;2.78;;;;;;;;;;5028156;28;20037;-62
2023/09/25 02:20:59;;;;;;;6.07;3.15;;;;;;;;;;5034898;28;20049;-62
2023/09/25 02:23:25;;;;;;;3.45;3.15;;;;;;;;;;5037131;28;20026;-62
2023/09/25 02:25:50;;;;;;;6.85;3.22;;;;;;;;;;5030474;28;20041;-62
2023/09/25 02:28:16;;;;;;;4.10;3.00;;;;;;;;;;5027907;28;20029;-62
2023/09/25 02:30:42;;;;;;;4.15;2.80;;;;;;;;;;5029645;28;20037;-62
2023/09/25 02:33:09;;;;;;;4.55;3.40;;;;;;;;;;5028344;28;20375;-62
2023/09/25 02:35:36;;;;;;;7.07;3.00;;;;;;;;;;5043863;28;20076;-62
2023/09/25 02:38:03;;;;;;;4.10;2.90;;;;;;;;;;5031060;28;20025;-62
2023/09/25 02:40:29;;;;;;;6.85;3.50;;;;;;;;;;5041225;28;20091;-62
2023/09/25 02:42:55;;;;;;;3.97;3.20;;;;;;;;;;5036504;28;20048;-62
2023/09/25 02:45:21;;;;;;;3.92;3.08;;;;;;;;;;5032593;28;20397;-62
2023/09/25 02:47:47;;;;;;;5.47;3.35;;;;;;;;;;5033684;28;20140;-62
2023/09/25 02:50:13;;;;;;;6.00;3.35;;;;;;;;;;5032650;28;20037;-62
2023/09/25 02:52:39;;;;;;;4.60;2.78;;;;;;;;;;5032759;28;20439;-62
2023/09/25 02:55:05;;;;;;;2.92;2.33;;;;;;;;;;5034735;28;20100;-62
2023/09/25 02:57:31;;;;;;;3.67;2.80;;;;;;;;;;5032311;28;20100;-62
2023/09/25 03:00:11;;;;;;;4.15;2.83;;;;;;;;;;5034454;28;20053;-62
2023/09/25 03:02:37;;;;;;;6.38;2.55;;;;;;;;;;5030671;28;20021;-62
2023/09/25 03:05:05;;;;;;;4.43;2.65;;;;;;;;;;5032756;28;20124;-62
2023/09/25 03:07:31;;;;;;;3.72;2.35;;;;;;;;;;5034609;28;20021;-62
2023/09/25 03:09:57;;;;;;;3.38;2.40;;;;;;;;;;5015936;28;20032;-62
2023/09/25 03:12:23;;;;;;;5.18;2.45;;;;;;;;;;5048014;28;20040;-62
2023/09/25 03:14:49;;;;;;;3.60;1.90;;;;;;;;;;5032013;28;20017;-62
2023/09/25 03:17:15;;;;;;;3.60;2.22;;;;;;;;;;5033357;28;20029;-62
2023/09/25 03:19:41;;;;;;;1.92;1.42;;;;;;;;;;5034165;28;20033;-62
2023/09/25 03:22:07;;;;;;;1.83;1.35;;;;;;;;;;5031778;28;20050;-62
2023/09/25 03:24:33;;;;;;;2.08;1.30;;;;;;;;;;5034131;28;20033;-62
2023/09/25 03:26:59;;;;;;;1.50;1.40;;;;;;;;;;5032588;28;20059;-62
2023/09/25 03:29:25;;;;;;;2.92;1.38;;;;;;;;;;5034139;28;20025;-62
2023/09/25 03:31:54;;;;;;;4.22;1.63;;;;;;;;;;5032954;28;20096;-62
2023/09/25 03:34:20;;;;;;;2.65;1.65;;;;;;;;;;5042524;28;20028;-62
2023/09/25 03:36:46;;;;;;;2.08;1.30;;;;;;;;;;5033963;28;20049;-62
2023/09/25 03:39:12;;;;;;;3.28;1.70;;;;;;;;;;5028634;28;20112;-61
2023/09/25 03:41:38;;;;;;;3.35;1.65;;;;;;;;;;5033894;28;20045;-61
2023/09/25 03:44:04;;;;;;;1.90;1.15;;;;;;;;;;5032710;28;20446;-61
2023/09/25 03:46:30;;;;;;;2.80;1.27;;;;;;;;;;5030654;28;20361;-61
2023/09/25 03:48:56;;;;;;;2.00;1.15;;;;;;;;;;5021442;28;20037;-61
2023/09/25 03:51:22;;;;;;;2.15;1.23;;;;;;;;;;5026069;28;20029;-61
2023/09/25 03:53:48;;;;;;;2.38;1.05;;;;;;;;;;5032774;28;20451;-61
2023/09/25 03:56:14;;;;;;;2.42;1.17;;;;;;;;;;5030577;28;20151;-61
2023/09/25 03:58:40;;;;;;;2.70;1.52;;;;;;;;;;5030441;28;20100;-62
2023/09/25 04:01:06;;;;;;;3.83;1.40;;;;;;;;;;5033599;28;20080;-62
2023/09/25 04:03:32;;;;;;;3.55;1.35;;;;;;;;;;5027924;28;20052;-61
2023/09/25 04:05:58;;;;;;;2.67;1.50;;;;;;;;;;5027105;28;20445;-61
2023/09/25 04:08:24;;;;;;;1.58;1.15;;;;;;;;;;5026732;28;20029;-61
2023/09/25 04:10:50;;;;;;;5.00;1.38;;;;;;;;;;5039293;28;20028;-61
2023/09/25 04:13:18;;;;;;;2.55;1.60;;;;;;;;;;5033605;28;20052;-61
2023/09/25 04:15:44;;;;;;;2.05;1.35;;;;;;;;;;5029169;28;20026;-61
2023/09/25 04:18:10;;;;;;;2.92;1.50;;;;;;;;;;5033263;28;20032;-61
2023/09/25 04:20:38;;;;;;;1.23;0.93;;;;;;;;;;5008335;28;21417;-61
2023/09/25 04:23:04;;;;;;;3.70;1.52;;;;;;;;;;5002673;28;20031;-61
2023/09/25 04:25:31;;;;;;;3.92;1.33;;;;;;;;;;5016768;28;20141;-61
2023/09/25 04:27:57;;;;;;;3.38;1.50;;;;;;;;;;5009359;28;20036;-62
2023/09/25 04:30:24;;;;;;;4.75;1.45;;;;;;;;;;4996281;28;20053;-63
2023/09/25 04:32:54;;;;;;;3.42;1.85;;;;;;;;;;5013375;28;20022;-63
2023/09/25 04:35:21;;;;;;;3.50;1.40;;;;;;;;;;5012583;28;20038;-62
2023/09/25 04:37:47;;;;;;;2.33;1.17;;;;;;;;;;5010744;28;20034;-63
2023/09/25 04:40:24;;;;;;;2.45;1.33;;;;;;;;;;5013319;28;20032;-62
2023/09/25 04:42:50;;;;;;;6.20;1.40;;;;;;;;;;5013128;28;20026;-63
2023/09/25 04:45:18;;;;;;;2.70;1.33;;;;;;;;;;5010309;28;20048;-62
2023/09/25 04:47:45;;;;;;;4.97;1.80;;;;;;;;;;5012972;28;20111;-62
2023/09/25 04:50:11;;;;;;;2.72;1.60;;;;;;;;;;5007997;28;20045;-62
2023/09/25 04:52:40;;;;;;;2.78;1.10;;;;;;;;;;5011390;28;20060;-62
2023/09/25 04:55:12;;;;;;;3.55;1.27;;;;;;;;;;5012795;28;20022;-62
2023/09/25 04:57:45;;;;;;;2.70;1.42;;;;;;;;;;4993058;28;20088;-62
2023/09/25 05:00:21;;;;;;;1.73;1.13;;;;;;;;;;5012798;28;20022;-62
2023/09/25 05:02:48;;;;;;;3.75;1.85;;;;;;;;;;5010179;28;20026;-62
2023/09/25 05:05:14;;;;;;;3.38;1.40;;;;;;;;;;5002195;28;20046;-62
2023/09/25 05:07:44;;;;;;;2.38;1.40;;;;;;;;;;5012716;28;20055;-62
2023/09/25 05:10:11;;;;;;;3.47;1.70;;;;;;;;;;5015530;28;20031;-62
2023/09/25 05:12:37;;;;;;;3.78;1.40;;;;;;;;;;5012675;28;20018;-62
2023/09/25 05:15:04;;;;;;;3.60;1.60;;;;;;;;;;5011151;28;20036;-62
2023/09/25 05:17:30;;;;;;;3.20;1.30;;;;;;;;;;5012240;28;20018;-62
2023/09/25 05:19:56;;;;;;;4.25;1.42;;;;;;;;;;5011857;28;20044;-62
2023/09/25 05:22:22;;;;;;;2.67;1.58;;;;;;;;;;5027417;28;20137;-62
2023/09/25 05:24:48;;;;;;;4.68;1.95;;;;;;;;;;5031900;28;21187;-62
2023/09/25 05:27:14;;;;;;;2.88;1.48;;;;;;;;;;5026354;28;20056;-62
2023/09/25 05:29:40;;;;;;;4.40;1.83;;;;;;;;;;5031680;28;20026;-62
2023/09/25 05:32:06;;;;;;;3.83;1.80;;;;;;;;;;5008980;28;20041;-60
2023/09/25 05:34:33;;;;;;;3.38;1.70;;;;;;;;;;5026735;28;20022;-62
2023/09/25 05:36:58;;;;;;;2.55;2.15;;;;;;;;;;5029536;28;20079;-70
2023/09/25 05:39:25;;;;;;;4.13;1.75;;;;;;;;;;5031154;28;20108;-65
2023/09/25 05:41:51;;;;;;;3.15;1.42;;;;;;;;;;5029499;28;20476;-68
2023/09/25 05:44:17;;;;;;;5.55;1.90;;;;;;;;;;5027715;28;20164;-69
2023/09/25 05:46:43;;;;;;;2.53;1.50;;;;;;;;;;5024554;28;20108;-72
2023/09/25 05:49:09;;;;;;;2.35;1.38;;;;;;;;;;5007820;28;20021;-67
2023/09/25 05:51:36;;;;;;;5.60;1.70;;;;;;;;;;5029170;28;20022;-63
2023/09/25 05:54:05;;;;;;;3.47;1.70;;;;;;;;;;5018001;28;20034;-66
2023/09/25 05:56:31;;;;;;;3.70;1.60;;;;;;;;;;5030668;28;20022;-73
2023/09/25 05:58:57;;;;;;;3.95;2.10;;;;;;;;;;5011208;28;20038;-66
2023/09/25 06:01:23;;;;;;;2.95;1.73;;;;;;;;;;5030466;28;20486;-72
2023/09/25 06:03:49;;;;;;;2.58;1.42;;;;;;;;;;5031928;28;20064;-73
2023/09/25 06:06:15;;;;;;;4.00;2.03;;;;;;;;;;5028437;28;20021;-73
2023/09/25 06:08:41;;;;;;;3.08;1.95;;;;;;;;;;5032055;28;20416;-69
2023/09/25 06:11:07;;;;;;;3.65;1.88;;;;;;;;;;5028746;28;20044;-73
2023/09/25 06:13:34;;;;;;;8.07;2.03;;;;;;;;;;5031888;28;20025;-72
2023/09/25 06:16:00;;;;;;;3.88;1.98;;;;;;;;;;5031107;28;20033;-73
2023/09/25 06:18:26;;;;;;;2.80;1.80;;;;;;;;;;5031233;28;20036;-63
2023/09/25 06:20:52;;;;;;;5.13;2.50;;;;;;;;;;5035350;28;20096;-67
2023/09/25 06:23:18;;;;;;;3.85;2.00;;;;;;;;;;5033228;28;20057;-69
2023/09/25 06:25:47;;;;;;;7.57;2.65;;;;;;;;;;5044522;28;20032;-66
2023/09/25 06:28:14;;;;;;;5.90;1.95;;;;;;;;;;5015986;28;20038;-66
2023/09/25 06:30:41;;;;;;;3.78;2.00;;;;;;;;;;5029302;28;20021;-70
2023/09/25 06:33:07;;;;;;;5.10;2.30;;;;;;;;;;5029552;28;20057;-71
2023/09/25 06:35:33;;;;;;;8.27;2.50;;;;;;;;;;5035100;28;20037;-68
2023/09/25 06:37:59;;;;;;;3.45;2.28;;;;;;;;;;5030103;28;20094;-71
2023/09/25 06:40:25;;;;;;;3.72;2.25;;;;;;;;;;5031552;28;20029;-63
2023/09/25 06:42:51;;;;;;;5.95;2.25;;;;;;;;;;5032904;28;20048;-63
2023/09/25 06:45:18;;;;;;;3.67;2.15;;;;;;;;;;5024035;28;20049;-63
2023/09/25 06:47:47;;;;;;;6.15;2.85;;;;;;;;;;5036067;28;20033;-63
2023/09/25 06:50:13;;;;;;;3.75;2.28;;;;;;;;;;5034730;28;20066;-63
2023/09/25 06:52:40;;;;;;;6.75;2.65;;;;;;;;;;5034346;28;20033;-63
2023/09/25 06:55:06;;;;;;;4.50;2.63;;;;;;;;;;5034214;28;20028;-63
2023/09/25 06:57:33;;;;;;;8.68;2.40;;;;;;;;;;5034789;28;20340;-64
2023/09/25 06:59:59;;;;;;;7.75;2.70;;;;;;;;;;5034808;28;20025;-63
2023/09/25 07:02:25;;;;;;;5.68;2.25;;;;;;;;;;5026570;28;20032;-60
2023/09/25 07:04:51;;;;;;;7.10;1.95;;;;;;;;;;5028020;28;20129;-60
2023/09/25 07:07:18;;;;;;;4.50;2.83;;;;;;;;;;5033555;28;20041;-60
2023/09/25 07:09:44;;;;;;;3.50;2.10;;;;;;;;;;5031656;28;20033;-59
2023/09/25 07:12:14;;;;;;;6.03;2.13;;;;;;;;;;5034482;28;20033;-60
2023/09/25 07:14:40;;;;;;;4.53;1.58;;;;;;;;;;5031420;28;20029;-61
2023/09/25 07:17:07;;;;;;;6.40;2.75;;;;;;;;;;5034118;28;20026;-62
2023/09/25 07:19:33;;;;;;;7.40;2.22;;;;;;;;;;5032659;28;20028;-61
2023/09/25 07:21:59;;;;;;;4.03;1.95;;;;;;;;;;5018729;28;20095;-62
2023/09/25 07:24:25;;;;;;;2.95;2.08;;;;;;;;;;5034195;28;20171;-62
2023/09/25 07:26:51;;;;;;;3.80;1.98;;;;;;;;;;5033891;28;20073;-62
2023/09/25 07:29:19;;;;;;;5.45;1.95;;;;;;;;;;5032726;28;20034;-62
2023/09/25 07:31:45;;;;;;;5.07;1.80;;;;;;;;;;5032687;28;20035;-63
2023/09/25 07:34:11;;;;;;;4.50;1.52;;;;;;;;;;5032908;28;20021;-61
2023/09/25 07:36:37;;;;;;;3.72;1.83;;;;;;;;;;5033922;28;20033;-63
2023/09/25 07:39:04;;;;;;;5.18;1.90;;;;;;;;;;5034215;28;20029;-64
2023/09/25 07:41:30;;;;;;;6.28;2.33;;;;;;;;;;5035166;28;20025;-64
2023/09/25 07:43:56;;;;;;;3.47;1.85;;;;;;;;;;5035605;28;20036;-70
2023/09/25 07:46:25;;;;;;;3.85;1.92;;;;;;;;;;5034823;28;20033;-69
2023/09/25 07:48:52;;;;;;;5.55;2.13;;;;;;;;;;5030503;28;20034;-73
2023/09/25 07:51:18;;;;;;;3.92;1.83;;;;;;;;;;5037842;28;20426;-72
2023/09/25 07:53:44;;;;;;;3.53;2.05;;;;;;;;;;5037410;28;20038;-68
2023/09/25 07:56:10;;;;;;;6.05;2.05;;;;;;;;;;5025138;28;20029;-67
2023/09/25 07:58:39;;;;;;;5.85;2.38;;;;;;;;;;5034799;28;20364;-68
2023/09/25 08:01:08;;;;;;;5.00;2.38;;;;;;;;;;5031839;28;20041;-70
2023/09/25 08:03:35;;;;;;;4.03;2.45;;;;;;;;;;5034871;28;20025;-62
2023/09/25 08:06:05;;;;;;;6.63;3.38;;;;;;;;;;5034518;28;20124;-67
2023/09/25 08:08:31;;;;;;;5.68;2.10;;;;;;;;;;5035432;28;20049;-63
2023/09/25 08:10:57;;;;;;;8.35;3.08;;;;;;;;;;5034774;28;20025;-66
2023/09/25 08:13:23;;;;;;;3.55;1.80;;;;;;;;;;5033943;28;20569;-62
2023/09/25 08:15:49;;;;;;;4.07;2.17;;;;;;;;;;5033946;28;20039;-63
2023/09/25 08:18:15;;;;;;;3.25;1.77;;;;;;;;;;5026063;28;20033;-67
2023/09/25 08:20:41;;;;;;;2.72;1.27;;;;;;;;;;5034603;28;20172;-69
2023/09/25 08:23:07;;;;;;;3.25;1.58;;;;;;;;;;5034505;28;20025;-65
2023/09/25 08:25:33;;;;;;;4.03;1.80;;;;;;;;;;5033579;28;20133;-72
2023/09/25 08:27:59;;;;;;;4.03;1.92;;;;;;;;;;5035878;28;20379;-59
2023/09/25 08:30:26;;;;;;;3.83;1.65;;;;;;;;;;5033368;28;20345;-65
2023/09/25 08:32:53;;;;;;;5.72;1.98;;;;;;;;;;5033623;28;20033;-65
2023/09/25 08:35:20;;;;;;;4.20;1.73;;;;;;;;;;5036054;28;20022;-74
2023/09/25 08:37:46;;;;;;;4.45;1.60;;;;;;;;;;5035546;28;20022;-65
2023/09/25 08:40:13;;;;;;;3.28;1.67;;;;;;;;;;5032814;28;20033;-66
2023/09/25 08:42:39;;;;;;;5.68;1.60;;;;;;;;;;5017208;28;20384;-70
2023/09/25 08:45:05;;;;;;;4.13;1.95;;;;;;;;;;5034218;28;20420;-67
2023/09/25 08:47:32;;;;;;;2.60;1.35;;;;;;;;;;5033851;28;20032;-63
2023/09/25 08:49:59;;;;;;;3.33;1.52;;;;;;;;;;5034014;28;20350;-65
2023/09/25 08:52:25;;;;;;;5.05;1.70;;;;;;;;;;5032588;28;20026;-65
2023/09/25 08:54:52;;;;;;;2.97;1.60;;;;;;;;;;5031380;28;20113;-69
2023/09/25 08:57:19;;;;;;;3.33;1.80;;;;;;;;;;5030292;28;20096;-61
2023/09/25 08:59:46;;;;;;;4.50;1.77;;;;;;;;;;5033625;28;20036;-69
2023/09/25 09:02:12;;;;;;;4.78;1.80;;;;;;;;;;5031794;28;20102;-62
2023/09/25 09:04:38;;;;;;;2.40;1.65;;;;;;;;;;5032431;28;20029;-61
2023/09/25 09:07:05;;;;;;;4.15;1.92;;;;;;;;;;5032404;28;20444;-60
2023/09/25 09:09:31;;;;;;;3.63;2.35;;;;;;;;;;5031205;28;20036;-67
2023/09/25 09:11:58;;;;;;;10.05;3.25;;;;;;;;;;5032156;28;20075;-62
2023/09/25 09:14:43;;;;;;;3.38;2.00;;;;;;;;;;5031426;28;20394;-61
2023/09/25 09:17:09;;;;;;;5.82;1.80;;;;;;;;;;5031139;28;20080;-60
2023/09/25 09:19:37;;;;;;;5.63;2.95;;;;;;;;;;5031615;28;20032;-60
2023/09/25 09:22:08;;;;;;;3.20;2.30;;;;;;;;;;5031155;28;20053;-60
2023/09/25 09:24:37;;;;;;;4.97;2.13;;;;;;;;;;5031083;28;20056;-61
2023/09/25 09:27:07;;;;;;;4.32;2.17;;;;;;;;;;5031270;28;20146;-61
2023/09/25 09:29:42;;;;;;;4.28;1.70;;;;;;;;;;5028010;28;20422;-59
2023/09/25 09:32:09;;;;;;;5.32;2.45;;;;;;;;;;5029447;28;20026;-58
2023/09/25 09:34:36;;;;;;;2.40;1.98;;;;;;;;;;5031157;28;20033;-59
2023/09/25 09:37:03;;;;;;;3.92;2.20;;;;;;;;;;5029702;28;20033;-64
2023/09/25 09:39:34;;;;;;;4.82;1.75;;;;;;;;;;5029501;28;20025;-73
2023/09/25 09:42:07;;;;;;;2.92;1.52;;;;;;;;;;5030123;28;20021;-73
2023/09/25 09:44:33;;;;;;;5.80;1.60;;;;;;;;;;5021161;28;20560;-73
2023/09/25 09:47:03;;;;;;;4.72;2.00;;;;;;;;;;5032026;28;20093;-73
2023/09/25 09:49:30;;;;;;;3.22;1.77;;;;;;;;;;5032026;28;20049;-73
2023/09/25 09:51:57;;;;;;;2.03;1.63;;;;;;;;;;5030099;28;20104;-72
2023/09/25 09:54:24;;;;;;;3.80;2.10;;;;;;;;;;5028629;28;20024;-72
2023/09/25 09:56:50;;;;;;;4.97;2.00;;;;;;;;;;5026949;28;20107;-74
2023/09/25 09:59:17;;;;;;;2.35;1.50;;;;;;;;;;5031616;28;20028;-73
2023/09/25 10:01:50;;;;;;;4.55;1.88;;;;;;;;;;5013101;28;20099;-72
2023/09/25 10:04:16;;;;;;;2.95;1.90;;;;;;;;;;5027803;28;20037;-66
2023/09/25 10:06:52;;;;;;;2.80;1.70;;;;;;;;;;5031381;28;20030;-65
2023/09/25 10:09:18;;;;;;;4.18;2.20;;;;;;;;;;5030780;28;20111;-64
2023/09/25 10:11:47;;;;;;;5.63;2.60;;;;;;;;;;5031329;28;20049;-64
2023/09/25 10:14:13;;;;;;;4.70;2.10;;;;;;;;;;5030311;28;20498;-65
2023/09/25 10:16:58;;;;;;;6.97;2.63;;;;;;;;;;5031760;28;20022;-67
2023/09/25 10:19:33;;;;;;;4.60;2.40;;;;;;;;;;5025606;28;20026;-67
2023/09/25 10:22:22;;;;;;;3.85;2.75;;;;;;;;;;5014396;28;20408;-67
2023/09/25 10:24:49;;;;;;;5.82;2.00;;;;;;;;;;5016309;28;20052;-67
2023/09/25 10:27:16;;;;;;;4.82;2.35;;;;;;;;;;5031077;28;20472;-60
2023/09/25 10:30:01;;;;;;;3.60;2.38;;;;;;;;;;5029737;28;20025;-58
2023/09/25 10:32:34;;;;;;;3.97;2.15;;;;;;;;;;5028287;28;20101;-56
2023/09/25 10:35:19;;;;;;;2.87;2.43;;;;;;;;;;5031527;28;20100;-57
2023/09/25 10:38:04;;;;;;;5.57;3.70;;;;;;;;;;5029692;28;20361;-56
2023/09/25 10:40:30;;;;;;;3.65;2.17;;;;;;;;;;5031652;28;20441;-55
2023/09/25 10:42:57;;;;;;;5.13;2.38;;;;;;;;;;5031388;28;20018;-56
2023/09/25 10:45:23;;;;;;;2.90;1.95;;;;;;;;;;5031417;28;20100;-55
2023/09/25 10:47:49;;;;;;;4.13;1.55;;;;;;;;;;5031110;28;20017;-56
2023/09/25 10:50:15;;;;;;;4.35;2.00;;;;;;;;;;5031347;28;20025;-57
2023/09/25 10:52:41;;;;;;;3.63;2.08;;;;;;;;;;5030250;28;20128;-56
2023/09/25 10:55:07;;;;;;;3.65;2.22;;;;;;;;;;5031604;28;20387;-55
2023/09/25 10:57:33;;;;;;;5.60;2.22;;;;;;;;;;5031392;28;20031;-56
2023/09/25 11:00:09;;;;;;;2.22;1.80;;;;;;;;;;5031093;28;20108;-55
2023/09/25 11:02:35;;;;;;;4.50;2.20;;;;;;;;;;5031369;28;20018;-55
2023/09/25 11:05:02;;;;;;;4.75;1.83;;;;;;;;;;5034845;28;20066;-56
2023/09/25 11:07:29;;;;;;;2.53;1.80;;;;;;;;;;5031829;28;20029;-56
2023/09/25 11:09:56;;;;;;;2.75;1.95;;;;;;;;;;5033191;28;20041;-55
2023/09/25 11:12:22;;;;;;;3.15;1.60;;;;;;;;;;5033117;28;20026;-57
2023/09/25 11:14:48;;;;;;;3.00;1.92;;;;;;;;;;5034633;28;20147;-55
2023/09/25 11:17:14;;;;;;;2.55;1.60;;;;;;;;;;5034673;28;20026;-55
2023/09/25 11:19:46;;;;;;;2.58;1.70;;;;;;;;;;5034458;28;20036;-56
2023/09/25 11:22:12;;;;;;;3.22;1.40;;;;;;;;;;5034072;28;20053;-57
2023/09/25 11:24:38;;;;;;;4.03;1.70;;;;;;;;;;5032965;28;20036;-58
2023/09/25 11:27:08;;;;;;;6.55;2.25;;;;;;;;;;5034284;28;20115;-57
2023/09/25 11:29:37;;;;;;;6.78;3.63;;;;;;;;;;5034313;28;20479;-57
2023/09/25 11:32:03;;;;;;;3.00;2.40;;;;;;;;;;5034173;28;20104;-55
2023/09/25 11:34:29;;;;;;;3.58;2.08;;;;;;;;;;5034092;28;20017;-57
2023/09/25 11:36:58;;;;;;;2.15;1.80;;;;;;;;;;5033716;28;20079;-60
2023/09/25 11:39:24;;;;;;;3.88;1.75;;;;;;;;;;5031994;28;20021;-59
2023/09/25 11:41:51;;;;;;;3.40;1.85;;;;;;;;;;5030932;28;20080;-60
2023/09/25 11:44:17;;;;;;;2.55;1.77;;;;;;;;;;5033986;28;20052;-68
2023/09/25 11:46:43;;;;;;;3.38;1.90;;;;;;;;;;5033908;28;20025;-65
2023/09/25 11:49:09;;;;;;;2.25;1.88;;;;;;;;;;5034157;28;20021;-64
2023/09/25 11:51:36;;;;;;;2.33;1.70;;;;;;;;;;5033914;28;20029;-65
2023/09/25 11:54:02;;;;;;;2.78;1.50;;;;;;;;;;5032322;28;20483;-65
2023/09/25 11:56:28;;;;;;;1.73;1.48;;;;;;;;;;5033292;28;20094;-74
2023/09/25 11:58:55;;;;;;;2.45;1.50;;;;;;;;;;5035292;28;20117;-75
2023/09/25 12:01:21;;;;;;;1.65;1.55;;;;;;;;;;5035182;28;20037;-75
2023/09/25 12:03:47;;;;;;;3.30;1.80;;;;;;;;;;5033621;28;20048;-70
2023/09/25 12:06:13;;;;;;;1.67;1.52;;;;;;;;;;5032882;28;20037;-62
2023/09/25 12:08:40;;;;;;;2.88;1.23;;;;;;;;;;5030784;28;20087;-62
2023/09/25 12:11:05;;;;;;;2.03;1.48;;;;;;;;;;5032881;28;20029;-59
2023/09/25 12:13:31;;;;;;;2.95;1.40;;;;;;;;;;5033504;28;20092;-59
2023/09/25 12:15:57;;;;;;;0.98;0.82;;;;;;;;;;5032660;28;20021;-60
2023/09/25 12:18:23;;;;;;;1.88;1.40;;;;;;;;;;5032595;28;20369;-61
2023/09/25 12:20:49;;;;;;;3.13;1.80;;;;;;;;;;5033236;28;20076;-59
2023/09/25 12:23:16;;;;;;;5.63;2.20;;;;;;;;;;5019519;28;20104;-59
2023/09/25 12:25:42;;;;;;;1.60;1.40;;;;;;;;;;5033236;28;20033;-57
2023/09/25 12:28:08;;;;;;;1.63;1.45;;;;;;;;;;5030560;28;20032;-59
2023/09/25 12:30:35;;;;;;;2.42;1.67;;;;;;;;;;5033121;28;20021;-58
2023/09/25 12:33:01;;;;;;;2.80;2.10;;;;;;;;;;5032353;28;20034;-59
2023/09/25 12:35:27;;;;;;;1.55;1.25;;;;;;;;;;5033533;28;20159;-58
2023/09/25 12:37:55;;;;;;;1.40;1.30;;;;;;;;;;5033128;28;20097;-58
2023/09/25 12:40:21;;;;;;;2.60;1.30;;;;;;;;;;5031244;28;20106;-62
2023/09/25 12:42:47;;;;;;;2.00;1.60;;;;;;;;;;5032154;28;20499;-65
2023/09/25 12:45:14;;;;;;;3.97;1.42;;;;;;;;;;5030688;28;20419;-60
2023/09/25 12:47:40;;;;;;;2.10;1.35;;;;;;;;;;5032561;28;20102;-60
2023/09/25 12:50:06;;;;;;;2.38;1.25;;;;;;;;;;5032525;28;20436;-69
2023/09/25 12:52:32;;;;;;;3.17;1.63;;;;;;;;;;5033526;28;20021;-62
2023/09/25 12:55:00;;;;;;;2.70;1.88;;;;;;;;;;5032497;28;20083;-62
2023/09/25 12:57:27;;;;;;;3.15;1.10;;;;;;;;;;5032535;28;20018;-62
2023/09/25 12:59:53;;;;;;;1.88;1.50;;;;;;;;;;5032571;28;20060;-62
2023/09/25 13:02:19;;;;;;;2.88;1.63;;;;;;;;;;5031867;28;20427;-62
2023/09/25 13:04:45;;;;;;;1.58;1.48;;;;;;;;;;5014573;28;20029;-62
2023/09/25 13:07:11;;;;;;;2.70;2.05;;;;;;;;;;5032431;28;20032;-62
2023/09/25 13:09:37;;;;;;;2.63;1.67;;;;;;;;;;5031140;28;20029;-62
2023/09/25 13:12:03;;;;;;;1.85;1.63;;;;;;;;;;5033077;28;20176;-63
2023/09/25 13:14:29;;;;;;;2.33;2.00;;;;;;;;;;5031441;28;20037;-64
2023/09/25 13:16:55;;;;;;;2.17;1.90;;;;;;;;;;5031890;28;20033;-64
2023/09/25 13:19:22;;;;;;;3.10;1.63;;;;;;;;;;5014286;28;20123;-68
2023/09/25 13:21:48;;;;;;;2.83;1.70;;;;;;;;;;5031652;28;20049;-67
2023/09/25 13:24:15;;;;;;;3.92;2.30;;;;;;;;;;5030829;28;20038;-67
2023/09/25 13:26:41;;;;;;;3.47;2.35;;;;;;;;;;5029569;28;20484;-66
2023/09/25 13:29:07;;;;;;;3.60;2.13;;;;;;;;;;5032368;28;20037;-67
2023/09/25 13:31:33;;;;;;;2.30;1.80;;;;;;;;;;5031145;28;20037;-60
2023/09/25 13:34:00;;;;;;;2.08;1.52;;;;;;;;;;5031199;28;20064;-63
2023/09/25 13:36:26;;;;;;;2.50;1.80;;;;;;;;;;5030047;28;20048;-64
2023/09/25 13:38:54;;;;;;;1.80;1.50;;;;;;;;;;5031941;28;20085;-61
2023/09/25 13:41:20;;;;;;;1.85;1.30;;;;;;;;;;5030623;28;20091;-61
2023/09/25 13:43:46;;;;;;;3.28;1.73;;;;;;;;;;5031583;28;20025;-60
2023/09/25 13:46:13;;;;;;;5.43;1.80;;;;;;;;;;5031183;28;20099;-66
2023/09/25 13:48:39;;;;;;;2.60;1.35;;;;;;;;;;5030279;28;20013;-61
2023/09/25 13:51:06;;;;;;;2.35;1.60;;;;;;;;;;5030363;28;20048;-64
2023/09/25 13:53:35;;;;;;;2.08;1.85;;;;;;;;;;5027315;28;20029;-66
2023/09/25 13:56:05;;;;;;;1.90;1.75;;;;;;;;;;5009170;28;20047;-64
2023/09/25 13:58:32;;;;;;;3.75;1.60;;;;;;;;;;5029304;28;20033;-63
2023/09/25 14:00:59;;;;;;;3.53;1.60;;;;;;;;;;5029891;28;20368;-61
2023/09/25 14:03:25;;;;;;;1.90;1.67;;;;;;;;;;5029126;28;20045;-58
2023/09/25 14:05:52;;;;;;;1.50;1.30;;;;;;;;;;5031415;28;20053;-60
2023/09/25 14:08:18;;;;;;;2.53;1.80;;;;;;;;;;5028195;28;20049;-65
2023/09/25 14:10:44;;;;;;;1.27;1.15;;;;;;;;;;5027563;28;20030;-64
2023/09/25 14:13:10;;;;;;;2.38;1.67;;;;;;;;;;5033299;28;20798;-65
2023/09/25 14:15:36;;;;;;;4.15;1.55;;;;;;;;;;5029938;28;20040;-70
2023/09/25 14:18:03;;;;;;;3.67;1.40;;;;;;;;;;5028634;28;20399;-69
2023/09/25 14:20:29;;;;;;;2.10;1.60;;;;;;;;;;5030855;28;20025;-68
2023/09/25 14:22:55;;;;;;;1.80;1.25;;;;;;;;;;5005672;28;20034;-69
2023/09/25 14:25:21;;;;;;;3.00;1.52;;;;;;;;;;5028316;28;20468;-67
2023/09/25 14:27:49;;;;;;;2.97;1.52;;;;;;;;;;5028258;28;20029;-64
2023/09/25 14:30:15;;;;;;;4.70;1.95;;;;;;;;;;5031435;28;20479;-70
2023/09/25 14:32:42;;;;;;;1.98;1.80;;;;;;;;;;5011590;28;20539;-70
2023/09/25 14:35:08;;;;;;;2.70;1.80;;;;;;;;;;5029575;28;20040;-64
2023/09/25 14:37:34;;;;;;;4.18;1.90;;;;;;;;;;5012759;28;20383;-64
2023/09/25 14:40:01;;;;;;;3.40;1.80;;;;;;;;;;5032425;28;20026;-69
2023/09/25 14:42:30;;;;;;;2.60;1.60;;;;;;;;;;5034444;28;20529;-58
2023/09/25 14:44:56;;;;;;;3.22;1.48;;;;;;;;;;5034135;28;20398;-60